sensor_id;sensor_type;location;lat;lon;timestamp;pressure;altitude;pressure_sealevel;temperature
15333;BMP180;7766;51.534;6.722;2022-10-18T00:00:29;101965.09;;;17.86
15333;BMP180;7766;51.534;6.722;2022-10-18T00:01:30;101962.44;;;17.86
15333;BMP180;7766;51.534;6.722;2022-10-18T00:02:31;101965.09;;;17.86
15333;BMP180;7766;51.534;6.722;2022-10-18T00:03:33;101964.09;;;17.87
15333;BMP180;7766;51.534;6.722;2022-10-18T00:04:34;101963.06;;;17.88
15333;BMP180;7766;51.534;6.722;2022-10-18T00:05:35;101958.56;;;17.89
15333;BMP180;7766;51.534;6.722;2022-10-18T00:06:37;101958.56;;;17.89
15333;BMP180;7766;51.534;6.722;2022-10-18T00:07:37;101961.00;;;17.90
15333;BMP180;7766;51.534;6.722;2022-10-18T00:08:38;101959.16;;;17.91
15333;BMP180;7766;51.534;6.722;2022-10-18T00:09:39;101957.72;;;17.88
15333;BMP180;7766;51.534;6.722;2022-10-18T00:10:40;101958.56;;;17.89
15333;BMP180;7766;51.534;6.722;2022-10-18T00:11:41;101961.22;;;17.89
15333;BMP180;7766;51.534;6.722;2022-10-18T00:12:42;101948.13;;;17.87
15333;BMP180;7766;51.534;6.722;2022-10-18T00:13:43;101955.06;;;17.88
15333;BMP180;7766;51.534;6.722;2022-10-18T00:14:47;101961.44;;;17.87
15333;BMP180;7766;51.534;6.722;2022-10-18T00:15:59;101965.72;;;17.88
15333;BMP180;7766;51.534;6.722;2022-10-18T00:17:00;101954.06;;;17.89
15333;BMP180;7766;51.534;6.722;2022-10-18T00:18:01;101955.91;;;17.89
15333;BMP180;7766;51.534;6.722;2022-10-18T00:19:03;101956.72;;;17.89
15333;BMP180;7766;51.534;6.722;2022-10-18T00:20:05;101955.69;;;17.90
15333;BMP180;7766;51.534;6.722;2022-10-18T00:21:15;101956.72;;;17.89
15333;BMP180;7766;51.534;6.722;2022-10-18T00:22:17;101952.03;;;17.91
15333;BMP180;7766;51.534;6.722;2022-10-18T00:23:17;101954.69;;;17.91
15333;BMP180;7766;51.534;6.722;2022-10-18T00:24:18;101953.03;;;17.90
15333;BMP180;7766;51.534;6.722;2022-10-18T00:25:19;101958.34;;;17.90
15333;BMP180;7766;51.534;6.722;2022-10-18T00:26:26;101954.69;;;17.91
15333;BMP180;7766;51.534;6.722;2022-10-18T00:27:31;101958.16;;;17.92
15333;BMP180;7766;51.534;6.722;2022-10-18T00:28:33;101963.50;;;17.92
15333;BMP180;7766;51.534;6.722;2022-10-18T00:29:35;101963.50;;;17.92
15333;BMP180;7766;51.534;6.722;2022-10-18T00:30:36;101959.00;;;17.92
15333;BMP180;7766;51.534;6.722;2022-10-18T00:31:37;101960.63;;;17.93
15333;BMP180;7766;51.534;6.722;2022-10-18T00:32:40;101944.03;;;17.91
15333;BMP180;7766;51.534;6.722;2022-10-18T00:33:42;101950.19;;;17.92
15333;BMP180;7766;51.534;6.722;2022-10-18T00:34:43;101945.03;;;17.90
15333;BMP180;7766;51.534;6.722;2022-10-18T00:35:44;101943.44;;;17.89
15333;BMP180;7766;51.534;6.722;2022-10-18T00:36:45;101947.09;;;17.88
15333;BMP180;7766;51.534;6.722;2022-10-18T00:37:46;101949.56;;;17.90
15333;BMP180;7766;51.534;6.722;2022-10-18T00:38:48;101941.38;;;17.91
15333;BMP180;7766;51.534;6.722;2022-10-18T00:39:49;101940.78;;;17.89
15333;BMP180;7766;51.534;6.722;2022-10-18T00:40:50;101944.44;;;17.88
15333;BMP180;7766;51.534;6.722;2022-10-18T00:41:51;101950.59;;;17.89
15333;BMP180;7766;51.534;6.722;2022-10-18T00:42:52;101947.09;;;17.88
15333;BMP180;7766;51.534;6.722;2022-10-18T00:44:02;101946.47;;;17.86
15333;BMP180;7766;51.534;6.722;2022-10-18T00:45:20;101938.72;;;17.85
15333;BMP180;7766;51.534;6.722;2022-10-18T00:46:23;101950.97;;;17.86
15333;BMP180;7766;51.534;6.722;2022-10-18T00:47:25;101949.13;;;17.86
15333;BMP180;7766;51.534;6.722;2022-10-18T00:48:26;101945.88;;;17.84
15333;BMP180;7766;51.534;6.722;2022-10-18T00:49:36;101942.16;;;17.85
15333;BMP180;7766;51.534;6.722;2022-10-18T00:50:38;101944.22;;;17.83
15333;BMP180;7766;51.534;6.722;2022-10-18T00:51:56;101941.78;;;17.82
15333;BMP180;7766;51.534;6.722;2022-10-18T00:53:01;101932.97;;;17.81
15333;BMP180;7766;51.534;6.722;2022-10-18T00:54:03;101942.56;;;17.82
15333;BMP180;7766;51.534;6.722;2022-10-18T00:55:05;101933.97;;;17.80
15333;BMP180;7766;51.534;6.722;2022-10-18T00:56:07;101936.00;;;17.79
15333;BMP180;7766;51.534;6.722;2022-10-18T00:57:08;101933.34;;;17.79
15333;BMP180;7766;51.534;6.722;2022-10-18T00:58:12;101935.19;;;17.78
15333;BMP180;7766;51.534;6.722;2022-10-18T00:59:15;101934.38;;;17.78
15333;BMP180;7766;51.534;6.722;2022-10-18T01:00:17;101934.38;;;17.78
15333;BMP180;7766;51.534;6.722;2022-10-18T01:01:18;101937.66;;;17.80
15333;BMP180;7766;51.534;6.722;2022-10-18T01:02:19;101936.00;;;17.79
15333;BMP180;7766;51.534;6.722;2022-10-18T01:03:20;101941.69;;;17.76
15333;BMP180;7766;51.534;6.722;2022-10-18T01:04:21;101941.91;;;17.74
15333;BMP180;7766;51.534;6.722;2022-10-18T01:05:22;101932.06;;;17.75
15333;BMP180;7766;51.534;6.722;2022-10-18T01:06:24;101938.22;;;17.75
15333;BMP180;7766;51.534;6.722;2022-10-18T01:08:50;101930.22;;;17.75
15333;BMP180;7766;51.534;6.722;2022-10-18T01:12:53;101936.38;;;17.76
15333;BMP180;7766;51.534;6.722;2022-10-18T01:14:13;101935.41;;;17.77
15333;BMP180;7766;51.534;6.722;2022-10-18T01:16:46;101934.38;;;17.78
15333;BMP180;7766;51.534;6.722;2022-10-18T01:17:58;101936.00;;;17.79
15333;BMP180;7766;51.534;6.722;2022-10-18T01:22:08;101937.78;;;17.72
15333;BMP180;7766;51.534;6.722;2022-10-18T01:30:59;101930.63;;;17.66
15333;BMP180;7766;51.534;6.722;2022-10-18T01:32:03;101930.63;;;17.66
15333;BMP180;7766;51.534;6.722;2022-10-18T01:33:25;101935.94;;;17.66
15333;BMP180;7766;51.534;6.722;2022-10-18T01:34:31;101934.06;;;17.66
15333;BMP180;7766;51.534;6.722;2022-10-18T01:35:40;101935.94;;;17.66
15333;BMP180;7766;51.534;6.722;2022-10-18T01:36:45;101934.28;;;17.65
15333;BMP180;7766;51.534;6.722;2022-10-18T01:37:49;101934.28;;;17.65
15333;BMP180;7766;51.534;6.722;2022-10-18T01:38:54;101938.78;;;17.64
15333;BMP180;7766;51.534;6.722;2022-10-18T01:39:59;101930.78;;;17.64
15333;BMP180;7766;51.534;6.722;2022-10-18T01:41:05;101931.00;;;17.63
15333;BMP180;7766;51.534;6.722;2022-10-18T01:42:09;101932.00;;;17.62
15333;BMP180;7766;51.534;6.722;2022-10-18T01:43:13;101925.88;;;17.62
15333;BMP180;7766;51.534;6.722;2022-10-18T01:44:20;101930.38;;;17.61
15333;BMP180;7766;51.534;6.722;2022-10-18T01:45:24;101931.41;;;17.60
15333;BMP180;7766;51.534;6.722;2022-10-18T01:46:25;101921.97;;;17.58
15333;BMP180;7766;51.534;6.722;2022-10-18T01:47:28;101923.81;;;17.57
15333;BMP180;7766;51.534;6.722;2022-10-18T01:48:29;101921.97;;;17.58
15333;BMP180;7766;51.534;6.722;2022-10-18T01:49:30;101933.19;;;17.53
15333;BMP180;7766;51.534;6.722;2022-10-18T01:50:34;101921.09;;;17.51
15333;BMP180;7766;51.534;6.722;2022-10-18T01:51:35;101931.75;;;17.51
15333;BMP180;7766;51.534;6.722;2022-10-18T01:52:46;101930.13;;;17.50
15333;BMP180;7766;51.534;6.722;2022-10-18T01:53:47;101927.25;;;17.51
15333;BMP180;7766;51.534;6.722;2022-10-18T01:54:48;101927.25;;;17.51
15333;BMP180;7766;51.534;6.722;2022-10-18T01:56:01;101925.81;;;17.49
15333;BMP180;7766;51.534;6.722;2022-10-18T01:58:21;101922.97;;;17.50
15333;BMP180;7766;51.534;6.722;2022-10-18T01:59:33;101930.94;;;17.50
15333;BMP180;7766;51.534;6.722;2022-10-18T02:00:40;101932.56;;;17.51
15333;BMP180;7766;51.534;6.722;2022-10-18T02:03:15;101927.63;;;17.48
15333;BMP180;7766;51.534;6.722;2022-10-18T02:04:36;101926.03;;;17.48
15333;BMP180;7766;51.534;6.722;2022-10-18T02:06:08;101925.38;;;17.46
15333;BMP180;7766;51.534;6.722;2022-10-18T02:07:22;101914.13;;;17.44
15333;BMP180;7766;51.534;6.722;2022-10-18T02:08:32;101919.44;;;17.44
15333;BMP180;7766;51.534;6.722;2022-10-18T02:09:45;101907.16;;;17.43
15333;BMP180;7766;51.534;6.722;2022-10-18T02:10:54;101921.47;;;17.42
15333;BMP180;7766;51.534;6.722;2022-10-18T02:11:56;101921.28;;;17.43
15333;BMP180;7766;51.534;6.722;2022-10-18T02:12:58;101914.50;;;17.41
15333;BMP180;7766;51.534;6.722;2022-10-18T02:14:07;101916.16;;;17.42
15333;BMP180;7766;51.534;6.722;2022-10-18T02:15:14;101920.66;;;17.41
15333;BMP180;7766;51.534;6.722;2022-10-18T02:16:43;101916.56;;;17.39
15333;BMP180;7766;51.534;6.722;2022-10-18T02:17:43;101924.31;;;17.40
15333;BMP180;7766;51.534;6.722;2022-10-18T02:18:49;101920.88;;;17.40
15333;BMP180;7766;51.534;6.722;2022-10-18T02:19:54;101921.88;;;17.39
15333;BMP180;7766;51.534;6.722;2022-10-18T02:20:56;101917.38;;;17.39
15333;BMP180;7766;51.534;6.722;2022-10-18T02:21:58;101915.56;;;17.40
15333;BMP180;7766;51.534;6.722;2022-10-18T02:23:01;101919.00;;;17.40
15333;BMP180;7766;51.534;6.722;2022-10-18T02:24:03;101919.84;;;17.41
15333;BMP180;7766;51.534;6.722;2022-10-18T02:25:08;101919.84;;;17.41
15333;BMP180;7766;51.534;6.722;2022-10-18T02:26:12;101920.88;;;17.40
15333;BMP180;7766;51.534;6.722;2022-10-18T02:27:14;101917.38;;;17.39
15333;BMP180;7766;51.534;6.722;2022-10-18T02:28:15;101912.91;;;17.40
15333;BMP180;7766;51.534;6.722;2022-10-18T02:29:16;101920.88;;;17.40
15333;BMP180;7766;51.534;6.722;2022-10-18T02:30:21;101920.03;;;17.39
15333;BMP180;7766;51.534;6.722;2022-10-18T02:31:47;101923.09;;;17.36
15333;BMP180;7766;51.534;6.722;2022-10-18T02:33:01;101919.59;;;17.36
15333;BMP180;7766;51.534;6.722;2022-10-18T02:34:23;101922.09;;;17.37
15333;BMP180;7766;51.534;6.722;2022-10-18T02:35:34;101919.44;;;17.37
15333;BMP180;7766;51.534;6.722;2022-10-18T02:36:50;101924.31;;;17.34
15333;BMP180;7766;51.534;6.722;2022-10-18T02:37:53;101926.13;;;17.33
15333;BMP180;7766;51.534;6.722;2022-10-18T02:39:00;101918.16;;;17.33
15333;BMP180;7766;51.534;6.722;2022-10-18T02:40:04;101926.13;;;17.33
15333;BMP180;7766;51.534;6.722;2022-10-18T02:41:05;101929.41;;;17.35
15333;BMP180;7766;51.534;6.722;2022-10-18T02:42:09;101930.22;;;17.36
15333;BMP180;7766;51.534;6.722;2022-10-18T02:43:10;101922.47;;;17.34
15333;BMP180;7766;51.534;6.722;2022-10-18T02:44:13;101922.66;;;17.33
15333;BMP180;7766;51.534;6.722;2022-10-18T02:45:15;101933.28;;;17.33
15333;BMP180;7766;51.534;6.722;2022-10-18T02:46:16;101923.69;;;17.32
15333;BMP180;7766;51.534;6.722;2022-10-18T02:47:17;101926.34;;;17.32
15333;BMP180;7766;51.534;6.722;2022-10-18T02:48:18;101929.00;;;17.32
15333;BMP180;7766;51.534;6.722;2022-10-18T02:49:19;101926.34;;;17.32
15333;BMP180;7766;51.534;6.722;2022-10-18T02:50:20;101926.34;;;17.32
15333;BMP180;7766;51.534;6.722;2022-10-18T02:51:21;101925.50;;;17.32
15333;BMP180;7766;51.534;6.722;2022-10-18T02:52:23;101925.06;;;17.28
15333;BMP180;7766;51.534;6.722;2022-10-18T02:53:24;101929.19;;;17.31
15333;BMP180;7766;51.534;6.722;2022-10-18T02:54:25;101923.88;;;17.31
15333;BMP180;7766;51.534;6.722;2022-10-18T02:55:26;101922.03;;;17.31
15333;BMP180;7766;51.534;6.722;2022-10-18T02:56:26;101921.22;;;17.31
15333;BMP180;7766;51.534;6.722;2022-10-18T02:57:27;101921.41;;;17.29
15333;BMP180;7766;51.534;6.722;2022-10-18T02:58:29;101918.75;;;17.29
15333;BMP180;7766;51.534;6.722;2022-10-18T02:59:30;101922.22;;;17.30
15333;BMP180;7766;51.534;6.722;2022-10-18T03:00:31;101923.25;;;17.29
15333;BMP180;7766;51.534;6.722;2022-10-18T03:01:33;101924.88;;;17.30
15333;BMP180;7766;51.534;6.722;2022-10-18T03:02:35;101921.22;;;17.31
15333;BMP180;7766;51.534;6.722;2022-10-18T03:03:36;101924.88;;;17.30
15333;BMP180;7766;51.534;6.722;2022-10-18T03:04:37;101926.72;;;17.29
15333;BMP180;7766;51.534;6.722;2022-10-18T03:05:38;101931.22;;;17.29
15333;BMP180;7766;51.534;6.722;2022-10-18T03:06:39;101930.38;;;17.28
15333;BMP180;7766;51.534;6.722;2022-10-18T03:07:40;101926.91;;;17.28
15333;BMP180;7766;51.534;6.722;2022-10-18T03:08:40;101923.25;;;17.29
15333;BMP180;7766;51.534;6.722;2022-10-18T03:09:41;101927.53;;;17.30
15333;BMP180;7766;51.534;6.722;2022-10-18T03:10:45;101930.38;;;17.28
15333;BMP180;7766;51.534;6.722;2022-10-18T03:11:46;101932.03;;;17.29
15333;BMP180;7766;51.534;6.722;2022-10-18T03:12:47;101936.53;;;17.29
15333;BMP180;7766;51.534;6.722;2022-10-18T03:13:48;101924.06;;;17.29
15333;BMP180;7766;51.534;6.722;2022-10-18T03:14:50;101926.72;;;17.29
15333;BMP180;7766;51.534;6.722;2022-10-18T03:15:51;101941.00;;;17.28
15333;BMP180;7766;51.534;6.722;2022-10-18T03:16:52;101935.69;;;17.28
15333;BMP180;7766;51.534;6.722;2022-10-18T03:17:53;101933.03;;;17.28
15333;BMP180;7766;51.534;6.722;2022-10-18T03:18:53;101930.38;;;17.28
15333;BMP180;7766;51.534;6.722;2022-10-18T03:19:54;101935.69;;;17.28
15333;BMP180;7766;51.534;6.722;2022-10-18T03:20:55;101937.34;;;17.29
15333;BMP180;7766;51.534;6.722;2022-10-18T03:21:56;101933.03;;;17.28
15333;BMP180;7766;51.534;6.722;2022-10-18T03:22:57;101924.06;;;17.29
15333;BMP180;7766;51.534;6.722;2022-10-18T03:23:58;101930.38;;;17.28
15333;BMP180;7766;51.534;6.722;2022-10-18T03:24:59;101932.03;;;17.29
15333;BMP180;7766;51.534;6.722;2022-10-18T03:26:00;101929.19;;;17.31
15333;BMP180;7766;51.534;6.722;2022-10-18T03:27:01;101924.69;;;17.31
15333;BMP180;7766;51.534;6.722;2022-10-18T03:28:02;101923.03;;;17.30
15333;BMP180;7766;51.534;6.722;2022-10-18T03:29:03;101929.38;;;17.29
15333;BMP180;7766;51.534;6.722;2022-10-18T03:30:04;101927.34;;;17.31
15333;BMP180;7766;51.534;6.722;2022-10-18T03:31:05;101923.69;;;17.32
15333;BMP180;7766;51.534;6.722;2022-10-18T03:32:06;101921.03;;;17.32
15333;BMP180;7766;51.534;6.722;2022-10-18T03:33:07;101922.03;;;17.31
15333;BMP180;7766;51.534;6.722;2022-10-18T03:34:07;101926.53;;;17.31
15333;BMP180;7766;51.534;6.722;2022-10-18T03:35:09;101922.41;;;17.28
15333;BMP180;7766;51.534;6.722;2022-10-18T03:36:10;101922.03;;;17.31
15333;BMP180;7766;51.534;6.722;2022-10-18T03:37:11;101925.50;;;17.32
15333;BMP180;7766;51.534;6.722;2022-10-18T03:38:12;101927.34;;;17.31
15333;BMP180;7766;51.534;6.722;2022-10-18T03:39:14;101929.00;;;17.32
15333;BMP180;7766;51.534;6.722;2022-10-18T03:40:15;101929.00;;;17.32
15333;BMP180;7766;51.534;6.722;2022-10-18T03:41:16;101925.69;;;17.30
15333;BMP180;7766;51.534;6.722;2022-10-18T03:42:17;101921.41;;;17.29
15333;BMP180;7766;51.534;6.722;2022-10-18T03:43:17;101934.50;;;17.31
15333;BMP180;7766;51.534;6.722;2022-10-18T03:44:19;101922.03;;;17.31
15333;BMP180;7766;51.534;6.722;2022-10-18T03:45:20;101930.00;;;17.31
15333;BMP180;7766;51.534;6.722;2022-10-18T03:46:20;101916.09;;;17.29
15333;BMP180;7766;51.534;6.722;2022-10-18T03:47:21;101924.06;;;17.29
15333;BMP180;7766;51.534;6.722;2022-10-18T03:48:22;101923.88;;;17.31
15333;BMP180;7766;51.534;6.722;2022-10-18T03:49:23;101923.25;;;17.29
15333;BMP180;7766;51.534;6.722;2022-10-18T03:50:24;101929.19;;;17.31
15333;BMP180;7766;51.534;6.722;2022-10-18T03:51:25;101931.66;;;17.32
15333;BMP180;7766;51.534;6.722;2022-10-18T03:52:26;101932.44;;;17.32
15333;BMP180;7766;51.534;6.722;2022-10-18T03:53:27;101929.38;;;17.29
15333;BMP180;7766;51.534;6.722;2022-10-18T03:54:28;101935.50;;;17.30
15333;BMP180;7766;51.534;6.722;2022-10-18T03:55:29;101937.09;;;17.24
15333;BMP180;7766;51.534;6.722;2022-10-18T03:56:30;101932.44;;;17.26
15333;BMP180;7766;51.534;6.722;2022-10-18T03:57:31;101931.78;;;17.24
15333;BMP180;7766;51.534;6.722;2022-10-18T03:58:32;101936.72;;;17.27
15333;BMP180;7766;51.534;6.722;2022-10-18T03:59:33;101929.56;;;17.28
15333;BMP180;7766;51.534;6.722;2022-10-18T04:00:34;101933.03;;;17.28
15333;BMP180;7766;51.534;6.722;2022-10-18T04:01:35;101929.38;;;17.29
15333;BMP180;7766;51.534;6.722;2022-10-18T04:02:36;101925.50;;;17.32
15333;BMP180;7766;51.534;6.722;2022-10-18T04:03:37;101935.94;;;17.33
15333;BMP180;7766;51.534;6.722;2022-10-18T04:04:38;101933.28;;;17.33
15333;BMP180;7766;51.534;6.722;2022-10-18T04:05:39;101932.28;;;17.34
15333;BMP180;7766;51.534;6.722;2022-10-18T04:06:40;101934.94;;;17.34
15333;BMP180;7766;51.534;6.722;2022-10-18T04:07:41;101936.38;;;17.36
15333;BMP180;7766;51.534;6.722;2022-10-18T04:08:42;66029.41;;;-132.42
15333;BMP180;7766;51.534;6.722;2022-10-18T04:09:43;66029.41;;;-132.42
15333;BMP180;7766;51.534;6.722;2022-10-18T04:10:44;66029.41;;;-132.42
15333;BMP180;7766;51.534;6.722;2022-10-18T04:11:45;66029.41;;;-132.42
15333;BMP180;7766;51.534;6.722;2022-10-18T04:12:46;66029.41;;;-132.42
15333;BMP180;7766;51.534;6.722;2022-10-18T04:13:46;66029.41;;;-132.42
15333;BMP180;7766;51.534;6.722;2022-10-18T04:14:47;66029.41;;;-132.42
15333;BMP180;7766;51.534;6.722;2022-10-18T04:15:48;66029.41;;;-132.42
15333;BMP180;7766;51.534;6.722;2022-10-18T04:16:49;66029.41;;;-132.42
15333;BMP180;7766;51.534;6.722;2022-10-18T04:17:50;66029.41;;;-132.42
15333;BMP180;7766;51.534;6.722;2022-10-18T04:18:51;66029.41;;;-132.42
15333;BMP180;7766;51.534;6.722;2022-10-18T04:19:52;66029.41;;;-132.42
15333;BMP180;7766;51.534;6.722;2022-10-18T04:20:53;66029.41;;;-132.42
15333;BMP180;7766;51.534;6.722;2022-10-18T04:21:54;66029.41;;;-132.42
15333;BMP180;7766;51.534;6.722;2022-10-18T04:22:55;66029.41;;;-132.42
15333;BMP180;7766;51.534;6.722;2022-10-18T04:23:57;66029.41;;;-132.42
15333;BMP180;7766;51.534;6.722;2022-10-18T04:24:58;66029.41;;;-132.42
15333;BMP180;7766;51.534;6.722;2022-10-18T04:25:59;66029.41;;;-132.42
15333;BMP180;7766;51.534;6.722;2022-10-18T04:26:59;66029.41;;;-132.42
15333;BMP180;7766;51.534;6.722;2022-10-18T04:28:00;66029.41;;;-132.42
15333;BMP180;7766;51.534;6.722;2022-10-18T04:29:02;66029.41;;;-132.42
15333;BMP180;7766;51.534;6.722;2022-10-18T04:30:03;66029.41;;;-132.42
15333;BMP180;7766;51.534;6.722;2022-10-18T04:31:05;66029.41;;;-132.42
15333;BMP180;7766;51.534;6.722;2022-10-18T04:32:05;66029.41;;;-132.42
15333;BMP180;7766;51.534;6.722;2022-10-18T04:33:06;66029.41;;;-132.42
15333;BMP180;7766;51.534;6.722;2022-10-18T04:34:09;66029.41;;;-132.42
15333;BMP180;7766;51.534;6.722;2022-10-18T04:35:10;66029.41;;;-132.42
15333;BMP180;7766;51.534;6.722;2022-10-18T04:36:11;66029.41;;;-132.42
15333;BMP180;7766;51.534;6.722;2022-10-18T04:37:12;66029.41;;;-132.42
15333;BMP180;7766;51.534;6.722;2022-10-18T04:38:13;66029.41;;;-132.42
15333;BMP180;7766;51.534;6.722;2022-10-18T04:39:14;66029.41;;;-132.42
15333;BMP180;7766;51.534;6.722;2022-10-18T04:40:15;66029.41;;;-132.42
15333;BMP180;7766;51.534;6.722;2022-10-18T04:41:16;66029.41;;;-132.42
15333;BMP180;7766;51.534;6.722;2022-10-18T04:42:17;66029.41;;;-132.42
15333;BMP180;7766;51.534;6.722;2022-10-18T04:43:18;66029.41;;;-132.42
15333;BMP180;7766;51.534;6.722;2022-10-18T04:44:19;66029.41;;;-132.42
15333;BMP180;7766;51.534;6.722;2022-10-18T04:45:20;66029.41;;;-132.42
15333;BMP180;7766;51.534;6.722;2022-10-18T04:46:21;66029.41;;;-132.42
15333;BMP180;7766;51.534;6.722;2022-10-18T04:47:22;66029.41;;;-132.42
15333;BMP180;7766;51.534;6.722;2022-10-18T04:48:23;66029.41;;;-132.42
15333;BMP180;7766;51.534;6.722;2022-10-18T04:49:24;66029.41;;;-132.42
15333;BMP180;7766;51.534;6.722;2022-10-18T04:50:25;66029.41;;;-132.42
15333;BMP180;7766;51.534;6.722;2022-10-18T04:51:27;66029.41;;;-132.42
15333;BMP180;7766;51.534;6.722;2022-10-18T04:52:28;66029.41;;;-132.42
15333;BMP180;7766;51.534;6.722;2022-10-18T04:53:29;66029.41;;;-132.42
15333;BMP180;7766;51.534;6.722;2022-10-18T04:54:29;66029.41;;;-132.42
15333;BMP180;7766;51.534;6.722;2022-10-18T04:55:30;66029.41;;;-132.42
15333;BMP180;7766;51.534;6.722;2022-10-18T04:56:31;66029.41;;;-132.42
15333;BMP180;7766;51.534;6.722;2022-10-18T04:57:32;66029.41;;;-132.42
15333;BMP180;7766;51.534;6.722;2022-10-18T04:58:33;66029.41;;;-132.42
15333;BMP180;7766;51.534;6.722;2022-10-18T04:59:34;66029.41;;;-132.42
15333;BMP180;7766;51.534;6.722;2022-10-18T05:00:37;66029.41;;;-132.42
15333;BMP180;7766;51.534;6.722;2022-10-18T05:01:37;66029.41;;;-132.42
15333;BMP180;7766;51.534;6.722;2022-10-18T05:02:38;66029.41;;;-132.42
15333;BMP180;7766;51.534;6.722;2022-10-18T05:03:39;66029.41;;;-132.42
15333;BMP180;7766;51.534;6.722;2022-10-18T05:04:40;66029.41;;;-132.42
15333;BMP180;7766;51.534;6.722;2022-10-18T05:05:41;66029.41;;;-132.42
15333;BMP180;7766;51.534;6.722;2022-10-18T05:06:42;66029.41;;;-132.42
15333;BMP180;7766;51.534;6.722;2022-10-18T05:07:43;66029.41;;;-132.42
15333;BMP180;7766;51.534;6.722;2022-10-18T05:08:45;66029.41;;;-132.42
15333;BMP180;7766;51.534;6.722;2022-10-18T05:09:46;66029.41;;;-132.42
15333;BMP180;7766;51.534;6.722;2022-10-18T05:10:47;66029.41;;;-132.42
15333;BMP180;7766;51.534;6.722;2022-10-18T05:11:48;66029.41;;;-132.42
15333;BMP180;7766;51.534;6.722;2022-10-18T05:12:48;66029.41;;;-132.42
15333;BMP180;7766;51.534;6.722;2022-10-18T05:13:49;66029.41;;;-132.42
15333;BMP180;7766;51.534;6.722;2022-10-18T05:14:50;66029.41;;;-132.42
15333;BMP180;7766;51.534;6.722;2022-10-18T05:15:50;66029.41;;;-132.42
15333;BMP180;7766;51.534;6.722;2022-10-18T05:16:51;66029.41;;;-132.42
15333;BMP180;7766;51.534;6.722;2022-10-18T05:17:52;66029.41;;;-132.42
15333;BMP180;7766;51.534;6.722;2022-10-18T05:18:54;66029.41;;;-132.42
15333;BMP180;7766;51.534;6.722;2022-10-18T05:19:55;66029.41;;;-132.42
15333;BMP180;7766;51.534;6.722;2022-10-18T05:20:56;66029.41;;;-132.42
15333;BMP180;7766;51.534;6.722;2022-10-18T05:21:57;66029.41;;;-132.42
15333;BMP180;7766;51.534;6.722;2022-10-18T05:22:58;66029.41;;;-132.42
15333;BMP180;7766;51.534;6.722;2022-10-18T05:23:59;66029.41;;;-132.42
15333;BMP180;7766;51.534;6.722;2022-10-18T05:25:00;66029.41;;;-132.42
15333;BMP180;7766;51.534;6.722;2022-10-18T05:26:02;66029.41;;;-132.42
15333;BMP180;7766;51.534;6.722;2022-10-18T05:27:03;66029.41;;;-132.42
15333;BMP180;7766;51.534;6.722;2022-10-18T05:28:05;66029.41;;;-132.42
15333;BMP180;7766;51.534;6.722;2022-10-18T05:29:06;66029.41;;;-132.42
15333;BMP180;7766;51.534;6.722;2022-10-18T05:30:07;66029.41;;;-132.42
15333;BMP180;7766;51.534;6.722;2022-10-18T05:31:09;66029.41;;;-132.42
15333;BMP180;7766;51.534;6.722;2022-10-18T05:32:11;66029.41;;;-132.42
15333;BMP180;7766;51.534;6.722;2022-10-18T05:33:12;66029.41;;;-132.42
15333;BMP180;7766;51.534;6.722;2022-10-18T05:34:13;66029.41;;;-132.42
15333;BMP180;7766;51.534;6.722;2022-10-18T05:35:14;66029.41;;;-132.42
15333;BMP180;7766;51.534;6.722;2022-10-18T05:36:15;66029.41;;;-132.42
15333;BMP180;7766;51.534;6.722;2022-10-18T05:37:16;66029.41;;;-132.42
15333;BMP180;7766;51.534;6.722;2022-10-18T05:38:18;66029.41;;;-132.42
15333;BMP180;7766;51.534;6.722;2022-10-18T05:39:19;66029.41;;;-132.42
15333;BMP180;7766;51.534;6.722;2022-10-18T05:40:20;66029.41;;;-132.42
15333;BMP180;7766;51.534;6.722;2022-10-18T05:41:21;66029.41;;;-132.42
15333;BMP180;7766;51.534;6.722;2022-10-18T05:42:22;66029.41;;;-132.42
15333;BMP180;7766;51.534;6.722;2022-10-18T05:43:27;66029.41;;;-132.42
15333;BMP180;7766;51.534;6.722;2022-10-18T05:44:28;66029.41;;;-132.42
15333;BMP180;7766;51.534;6.722;2022-10-18T05:45:29;66029.41;;;-132.42
15333;BMP180;7766;51.534;6.722;2022-10-18T05:46:31;66029.41;;;-132.42
15333;BMP180;7766;51.534;6.722;2022-10-18T05:47:32;66029.41;;;-132.42
15333;BMP180;7766;51.534;6.722;2022-10-18T05:48:33;66029.41;;;-132.42
15333;BMP180;7766;51.534;6.722;2022-10-18T05:49:34;66029.41;;;-132.42
15333;BMP180;7766;51.534;6.722;2022-10-18T05:50:35;66029.41;;;-132.42
15333;BMP180;7766;51.534;6.722;2022-10-18T05:51:36;66029.41;;;-132.42
15333;BMP180;7766;51.534;6.722;2022-10-18T05:52:37;66029.41;;;-132.42
15333;BMP180;7766;51.534;6.722;2022-10-18T05:53:38;66029.41;;;-132.42
15333;BMP180;7766;51.534;6.722;2022-10-18T05:54:39;66029.41;;;-132.42
15333;BMP180;7766;51.534;6.722;2022-10-18T05:55:40;66029.41;;;-132.42
15333;BMP180;7766;51.534;6.722;2022-10-18T05:56:41;66029.41;;;-132.42
15333;BMP180;7766;51.534;6.722;2022-10-18T05:57:42;66029.41;;;-132.42
15333;BMP180;7766;51.534;6.722;2022-10-18T05:58:43;66029.41;;;-132.42
15333;BMP180;7766;51.534;6.722;2022-10-18T05:59:49;66029.41;;;-132.42
15333;BMP180;7766;51.534;6.722;2022-10-18T06:00:49;66029.41;;;-132.42
15333;BMP180;7766;51.534;6.722;2022-10-18T06:01:51;66029.41;;;-132.42
15333;BMP180;7766;51.534;6.722;2022-10-18T06:02:52;66029.41;;;-132.42
15333;BMP180;7766;51.534;6.722;2022-10-18T06:03:53;66029.41;;;-132.42
15333;BMP180;7766;51.534;6.722;2022-10-18T06:04:54;66029.41;;;-132.42
15333;BMP180;7766;51.534;6.722;2022-10-18T06:06:02;66029.41;;;-132.42
15333;BMP180;7766;51.534;6.722;2022-10-18T06:07:08;66029.41;;;-132.42
15333;BMP180;7766;51.534;6.722;2022-10-18T06:08:08;66029.41;;;-132.42
15333;BMP180;7766;51.534;6.722;2022-10-18T06:09:09;66029.41;;;-132.42
15333;BMP180;7766;51.534;6.722;2022-10-18T06:10:10;66029.41;;;-132.42
15333;BMP180;7766;51.534;6.722;2022-10-18T06:11:13;66029.41;;;-132.42
15333;BMP180;7766;51.534;6.722;2022-10-18T06:12:15;66029.41;;;-132.42
15333;BMP180;7766;51.534;6.722;2022-10-18T06:13:16;66029.41;;;-132.42
15333;BMP180;7766;51.534;6.722;2022-10-18T06:14:17;66029.41;;;-132.42
15333;BMP180;7766;51.534;6.722;2022-10-18T06:15:18;66029.41;;;-132.42
15333;BMP180;7766;51.534;6.722;2022-10-18T06:16:20;66029.41;;;-132.42
15333;BMP180;7766;51.534;6.722;2022-10-18T06:17:22;66029.41;;;-132.42
15333;BMP180;7766;51.534;6.722;2022-10-18T06:18:23;66029.41;;;-132.42